createdAt,value
2018-09-26T00:02:22.345Z,99.90
2018-09-26T00:04:52.454Z,99.90
2018-09-26T00:07:20.962Z,99.90
2018-09-26T00:09:49.464Z,99.90
2018-09-26T00:12:17.999Z,99.90
2018-09-26T00:14:46.493Z,99.90
2018-09-26T00:17:15.001Z,99.90
2018-09-26T00:19:43.493Z,99.90
2018-09-26T00:22:12.022Z,99.90
2018-09-26T00:24:40.530Z,99.90
2018-09-26T00:27:09.096Z,99.90
2018-09-26T00:29:37.585Z,99.90
2018-09-26T00:32:06.258Z,99.90
2018-09-26T00:34:34.738Z,99.90
2018-09-26T00:37:03.246Z,99.90
2018-09-26T00:39:31.738Z,99.90
2018-09-26T00:42:00.258Z,99.90
2018-09-26T00:44:28.775Z,99.90
2018-09-26T00:46:57.255Z,99.90
2018-09-26T00:49:25.894Z,99.90
2018-09-26T00:51:54.402Z,99.90
2018-09-26T00:54:22.940Z,99.90
2018-09-26T00:56:51.415Z,99.90
2018-09-26T00:59:19.967Z,99.90
2018-09-26T01:01:48.465Z,99.90
2018-09-26T01:04:16.960Z,99.90
2018-09-26T01:06:45.431Z,99.90
2018-09-26T01:09:13.948Z,99.90
2018-09-26T01:11:42.450Z,99.90
2018-09-26T01:14:10.945Z,99.90
2018-09-26T01:16:39.450Z,99.90
2018-09-26T01:19:07.954Z,99.90
2018-09-26T01:21:36.493Z,99.90
2018-09-26T01:24:04.994Z,99.90
2018-09-26T01:26:33.480Z,99.90
2018-09-26T01:29:01.962Z,99.90
2018-09-26T01:31:30.439Z,99.90
2018-09-26T01:33:58.939Z,99.90
2018-09-26T01:36:27.462Z,99.90
2018-09-26T01:38:55.966Z,99.90
2018-09-26T01:41:24.503Z,99.90
2018-09-26T01:43:53.014Z,99.90
2018-09-26T01:46:21.499Z,99.90
2018-09-26T01:48:49.989Z,99.90
2018-09-26T01:51:18.485Z,99.90
2018-09-26T01:53:47.004Z,99.90
2018-09-26T01:56:15.491Z,99.90
2018-09-26T01:58:44.017Z,99.90
2018-09-26T02:01:12.482Z,99.90
2018-09-26T02:03:41.022Z,99.90
2018-09-26T02:06:09.529Z,99.90
2018-09-26T02:08:38.080Z,99.90
2018-09-26T02:11:06.601Z,99.90
2018-09-26T02:13:35.043Z,99.90
2018-09-26T02:16:03.623Z,99.90
2018-09-26T02:18:32.091Z,99.90
2018-09-26T02:21:00.607Z,99.90
2018-09-26T02:23:29.098Z,99.90
2018-09-26T02:25:57.551Z,99.90
2018-09-26T02:28:25.991Z,99.90
2018-09-26T02:30:54.447Z,99.90
2018-09-26T02:33:22.939Z,99.90
2018-09-26T02:35:51.395Z,99.90
2018-09-26T02:38:19.891Z,99.90
2018-09-26T02:40:48.362Z,99.90
2018-09-26T02:43:17.182Z,99.90
2018-09-26T02:45:45.682Z,99.90
2018-09-26T02:48:19.504Z,99.90
2018-09-26T02:50:48.019Z,99.90
2018-09-26T02:53:16.484Z,99.90
2018-09-26T02:55:45.004Z,99.90
2018-09-26T02:58:13.462Z,99.90
2018-09-26T03:00:41.981Z,99.90
2018-09-26T03:03:10.434Z,99.90
2018-09-26T03:05:38.955Z,99.90
2018-09-26T03:08:07.451Z,99.90
2018-09-26T03:10:35.944Z,99.90
2018-09-26T03:13:04.430Z,99.90
2018-09-26T03:15:32.947Z,99.90
2018-09-26T03:18:01.487Z,99.90
2018-09-26T03:20:29.984Z,99.90
2018-09-26T03:22:58.529Z,99.90
2018-09-26T03:25:27.038Z,99.90
2018-09-26T03:27:55.535Z,99.90
2018-09-26T03:30:24.031Z,99.90
2018-09-26T03:32:52.499Z,99.90
2018-09-26T03:35:20.991Z,99.90
2018-09-26T03:37:50.291Z,99.90
2018-09-26T03:40:18.804Z,99.90
2018-09-26T03:42:47.310Z,99.90
2018-09-26T03:45:15.791Z,99.90
2018-09-26T03:47:44.282Z,99.90
2018-09-26T03:50:12.784Z,99.90
2018-09-26T03:52:41.243Z,99.90
2018-09-26T03:55:09.748Z,99.90
2018-09-26T03:57:38.212Z,99.90
2018-09-26T04:00:06.757Z,99.90
2018-09-26T04:02:35.279Z,99.90
2018-09-26T04:05:03.901Z,99.90
2018-09-26T04:07:32.345Z,99.90
2018-09-26T04:10:00.808Z,99.90
2018-09-26T04:12:29.299Z,99.90
2018-09-26T04:14:57.779Z,99.90
2018-09-26T04:17:26.334Z,99.90
2018-09-26T04:19:54.830Z,99.90
2018-09-26T04:22:23.323Z,99.90
2018-09-26T04:24:51.813Z,99.90
2018-09-26T04:27:20.416Z,99.90
2018-09-26T04:29:48.791Z,99.90
2018-09-26T04:32:17.303Z,99.90
2018-09-26T04:34:45.851Z,99.90
2018-09-26T04:37:14.363Z,99.90
2018-09-26T04:39:42.843Z,99.90
2018-09-26T04:42:11.374Z,99.90
2018-09-26T04:44:39.886Z,99.90
2018-09-26T04:47:08.394Z,99.90
2018-09-26T04:49:36.855Z,99.90
2018-09-26T04:52:05.423Z,99.90
2018-09-26T04:54:33.942Z,99.90
2018-09-26T04:57:02.458Z,99.90
2018-09-26T04:59:30.958Z,99.90
2018-09-26T05:01:59.509Z,99.90
2018-09-26T05:04:28.019Z,99.90
2018-09-26T05:06:56.542Z,99.90
2018-09-26T05:09:25.043Z,99.90
2018-09-26T05:11:53.548Z,99.90
2018-09-26T05:14:22.062Z,99.90
2018-09-26T05:16:50.591Z,99.90
2018-09-26T05:19:19.066Z,99.90
2018-09-26T05:21:47.627Z,99.90
2018-09-26T05:24:16.116Z,99.90
2018-09-26T05:26:44.623Z,99.90
2018-09-26T05:29:13.098Z,99.90
2018-09-26T05:31:41.610Z,99.90
2018-09-26T05:34:10.137Z,99.90
2018-09-26T05:36:38.639Z,99.90
2018-09-26T05:39:11.010Z,99.90
2018-09-26T05:41:39.645Z,99.90
2018-09-26T05:44:08.219Z,99.90
2018-09-26T05:46:36.698Z,99.90
2018-09-26T05:49:05.259Z,99.90
2018-09-26T05:51:33.736Z,99.90
2018-09-26T05:54:02.251Z,99.90
2018-09-26T05:56:30.751Z,99.90
2018-09-26T05:58:59.229Z,99.90
2018-09-26T06:01:27.758Z,99.90
2018-09-26T06:03:56.328Z,99.90
2018-09-26T06:06:24.826Z,99.90
2018-09-26T06:08:53.318Z,99.90
2018-09-26T06:11:21.828Z,99.90
2018-09-26T06:13:50.306Z,99.90
2018-09-26T06:16:18.814Z,99.90
2018-09-26T06:18:47.314Z,99.90
2018-09-26T06:21:15.807Z,99.90
2018-09-26T06:23:44.290Z,99.90
2018-09-26T06:26:12.791Z,99.90
2018-09-26T06:28:41.283Z,99.90
2018-09-26T06:31:09.750Z,99.90
2018-09-26T06:33:38.258Z,99.90
2018-09-26T06:36:06.902Z,99.90
2018-09-26T06:38:35.390Z,99.90
2018-09-26T06:41:03.906Z,99.90
2018-09-26T06:43:32.386Z,99.90
2018-09-26T06:46:00.851Z,99.90
2018-09-26T06:48:29.471Z,99.90
2018-09-26T06:50:57.934Z,99.90
2018-09-26T06:53:26.442Z,99.90
2018-09-26T06:55:54.894Z,99.90
2018-09-26T06:58:23.431Z,99.90
2018-09-26T07:00:51.874Z,99.90
2018-09-26T07:03:20.387Z,99.90
2018-09-26T07:05:48.889Z,99.90
2018-09-26T07:08:17.414Z,99.90
2018-09-26T07:10:45.958Z,99.90
2018-09-26T07:13:14.459Z,99.90
2018-09-26T07:15:42.986Z,99.90
2018-09-26T07:18:11.522Z,99.90
2018-09-26T07:20:40.044Z,99.90
2018-09-26T07:23:08.606Z,99.90
2018-09-26T07:25:37.124Z,99.90
2018-09-26T07:28:05.839Z,99.90
2018-09-26T07:30:34.364Z,99.90
2018-09-26T07:33:03.409Z,99.90
2018-09-26T07:35:31.881Z,99.90
2018-09-26T07:38:00.298Z,99.90
2018-09-26T07:40:28.742Z,99.90
2018-09-26T07:42:57.154Z,99.90
2018-09-26T07:45:25.640Z,99.90
2018-09-26T07:47:54.051Z,99.90
2018-09-26T07:50:22.518Z,99.90
2018-09-26T07:52:50.956Z,99.90
2018-09-26T07:55:19.443Z,99.90
2018-09-26T07:57:47.874Z,99.90
2018-09-26T08:00:16.338Z,99.90
2018-09-26T08:02:44.770Z,99.90
2018-09-26T08:05:13.278Z,99.90
2018-09-26T08:07:41.737Z,99.90
2018-09-26T08:10:10.218Z,99.90
2018-09-26T08:12:38.642Z,99.90
2018-09-26T08:15:07.142Z,99.90
2018-09-26T08:17:35.614Z,99.90
2018-09-26T08:20:04.102Z,99.90
2018-09-26T08:22:32.539Z,99.90
2018-09-26T08:25:01.082Z,99.90
2018-09-26T08:27:29.509Z,99.90
2018-09-26T08:29:57.960Z,99.90
2018-09-26T08:32:26.373Z,99.90
2018-09-26T08:34:54.825Z,99.90
2018-09-26T08:37:23.238Z,99.90
2018-09-26T08:39:51.694Z,99.90
2018-09-26T08:42:20.117Z,99.90
2018-09-26T08:44:48.569Z,99.90
2018-09-26T08:47:17.041Z,99.90
2018-09-26T08:49:45.818Z,99.90
2018-09-26T08:52:14.225Z,99.90
2018-09-26T08:54:42.657Z,99.90
2018-09-26T08:57:11.081Z,99.90
2018-09-26T08:59:39.550Z,99.90
2018-09-26T09:02:07.960Z,99.90
2018-09-26T09:04:36.410Z,99.90
2018-09-26T09:07:04.830Z,99.90
2018-09-26T09:09:33.262Z,99.90
2018-09-26T09:12:01.686Z,99.90
2018-09-26T09:14:30.229Z,99.90
2018-09-26T09:16:58.570Z,99.90
2018-09-26T09:19:27.061Z,99.90
2018-09-26T09:21:55.493Z,99.90
2018-09-26T09:24:23.936Z,99.90
2018-09-26T09:26:52.365Z,99.90
2018-09-26T09:29:20.808Z,99.90
2018-09-26T09:31:49.215Z,99.90
2018-09-26T09:34:17.682Z,99.90
2018-09-26T09:36:46.109Z,99.90
2018-09-26T09:39:14.530Z,99.90
2018-09-26T09:41:43.019Z,99.90
2018-09-26T09:44:11.613Z,99.90
2018-09-26T09:46:39.984Z,99.90
2018-09-26T09:49:08.389Z,99.90
2018-09-26T09:51:36.895Z,99.90
2018-09-26T09:54:05.321Z,99.90
2018-09-26T09:56:33.749Z,99.90
2018-09-26T09:59:02.157Z,99.90
2018-09-26T10:01:30.590Z,99.90
2018-09-26T10:04:00.204Z,99.90
2018-09-26T10:06:29.312Z,99.90
2018-09-26T10:08:58.178Z,99.90
2018-09-26T10:11:26.896Z,99.90
2018-09-26T10:13:55.297Z,99.90
2018-09-26T10:16:23.752Z,99.90
2018-09-26T10:18:52.150Z,99.90
2018-09-26T10:21:20.574Z,99.90
2018-09-26T10:23:48.989Z,99.90
2018-09-26T10:26:17.496Z,99.90
2018-09-26T10:28:45.859Z,99.90
2018-09-26T10:31:14.306Z,99.90
2018-09-26T10:33:42.706Z,99.90
2018-09-26T10:36:11.158Z,99.90
2018-09-26T10:38:39.576Z,99.90
2018-09-26T10:41:08.014Z,99.90
2018-09-26T10:43:36.437Z,99.30
2018-09-26T10:46:04.895Z,99.90
2018-09-26T10:48:33.294Z,99.90
2018-09-26T10:51:01.735Z,99.90
2018-09-26T10:53:30.158Z,98.90
2018-09-26T10:55:58.642Z,95.20
2018-09-26T10:58:27.097Z,95.30
2018-09-26T11:00:55.521Z,95.50
2018-09-26T11:03:23.929Z,91.90
2018-09-26T11:05:52.366Z,93.40
2018-09-26T11:08:20.817Z,92.00
2018-09-26T11:10:49.223Z,90.20
2018-09-26T11:13:17.649Z,87.90
2018-09-26T11:15:46.055Z,89.10
2018-09-26T11:18:14.525Z,86.30
2018-09-26T11:20:42.942Z,88.30
2018-09-26T11:23:11.369Z,91.60
2018-09-26T11:25:39.786Z,91.60
2018-09-26T11:28:08.222Z,95.90
2018-09-26T11:30:36.633Z,93.90
2018-09-26T11:33:05.085Z,94.60
2018-09-26T11:35:33.486Z,92.80
2018-09-26T11:38:01.913Z,91.50
2018-09-26T11:40:30.326Z,92.10
2018-09-26T11:42:58.758Z,94.50
2018-09-26T11:45:27.246Z,92.60
2018-09-26T11:47:55.682Z,91.90
2018-09-26T11:50:24.144Z,93.20
2018-09-26T11:52:53.178Z,92.00
2018-09-26T11:55:21.652Z,90.90
2018-09-26T11:57:50.128Z,89.80
2018-09-26T12:00:18.661Z,87.60
2018-09-26T12:02:47.222Z,90.40
2018-09-26T12:05:15.605Z,89.40
2018-09-26T12:07:44.078Z,92.90
2018-09-26T12:10:13.712Z,91.40
2018-09-26T12:12:42.158Z,87.20
2018-09-26T12:15:10.579Z,85.00
2018-09-26T12:17:39.042Z,83.60
2018-09-26T12:20:07.601Z,83.00
2018-09-26T12:22:36.414Z,90.50
2018-09-26T12:25:04.889Z,89.20
2018-09-26T12:27:33.334Z,90.70
2018-09-26T12:30:01.733Z,91.20
2018-09-26T12:32:30.169Z,88.00
2018-09-26T12:34:58.710Z,88.40
2018-09-26T12:37:27.074Z,90.60
2018-09-26T12:39:55.501Z,89.20
2018-09-26T12:42:24.024Z,85.40
2018-09-26T12:44:52.362Z,81.90
2018-09-26T12:47:20.889Z,89.30
2018-09-26T12:49:49.266Z,84.70
2018-09-26T12:52:17.711Z,80.10
2018-09-26T12:54:46.123Z,83.90
2018-09-26T12:57:14.570Z,78.20
2018-09-26T12:59:42.999Z,83.50
2018-09-26T13:02:11.410Z,77.00
2018-09-26T13:04:39.838Z,76.90
2018-09-26T13:07:08.250Z,80.50
2018-09-26T13:09:36.683Z,80.80
2018-09-26T13:12:05.131Z,77.30
2018-09-26T13:14:33.572Z,76.20
2018-09-26T13:17:02.403Z,74.60
2018-09-26T13:19:30.853Z,79.10
2018-09-26T13:21:59.294Z,73.10
2018-09-26T13:24:27.724Z,73.70
2018-09-26T13:26:56.173Z,72.50
2018-09-26T13:29:24.611Z,75.20
2018-09-26T13:31:53.037Z,79.90
2018-09-26T13:34:21.499Z,80.40
2018-09-26T13:36:49.919Z,79.20
2018-09-26T13:39:18.381Z,76.10
2018-09-26T13:41:46.802Z,85.70
2018-09-26T13:44:15.272Z,80.10
2018-09-26T13:46:43.745Z,81.30
2018-09-26T13:49:12.133Z,77.20
2018-09-26T13:51:40.532Z,79.70
2018-09-26T13:54:08.669Z,81.40
2018-09-26T13:56:37.026Z,84.20
2018-09-26T13:59:05.466Z,87.10
2018-09-26T14:01:33.997Z,88.30
2018-09-26T14:04:02.406Z,91.80
2018-09-26T14:06:30.821Z,86.40
2018-09-26T14:08:59.297Z,83.70
2018-09-26T14:11:27.714Z,88.60
2018-09-26T14:13:56.121Z,82.60
2018-09-26T14:16:24.594Z,75.10
2018-09-26T14:18:53.008Z,71.60
2018-09-26T14:21:32.575Z,67.10
2018-09-26T14:24:01.082Z,68.40
2018-09-26T14:26:29.649Z,70.70
2018-09-26T14:28:58.162Z,66.00
2018-09-26T14:31:26.978Z,68.60
2018-09-26T14:33:56.048Z,66.90
2018-09-26T14:36:24.542Z,65.40
2018-09-26T14:38:53.186Z,64.70
2018-09-26T14:41:21.734Z,65.70
2018-09-26T14:43:50.178Z,64.80
2018-09-26T14:46:18.750Z,66.50
2018-09-26T14:48:47.254Z,71.40
2018-09-26T14:51:15.859Z,68.90
2018-09-26T14:53:44.382Z,67.80
2018-09-26T14:56:13.005Z,71.00
2018-09-26T14:58:41.487Z,68.10
2018-09-26T15:01:10.030Z,67.60
2018-09-26T15:03:38.566Z,68.50
2018-09-26T15:06:07.164Z,68.70
2018-09-26T15:08:35.676Z,71.30
2018-09-26T15:11:04.229Z,73.80
2018-09-26T15:13:32.750Z,80.30
2018-09-26T15:16:01.278Z,86.50
2018-09-26T15:18:29.830Z,81.80
2018-09-26T15:20:58.380Z,80.90
2018-09-26T15:23:26.989Z,85.50
2018-09-26T15:25:55.537Z,82.90
2018-09-26T15:28:24.082Z,82.10
2018-09-26T15:30:52.617Z,82.00
2018-09-26T15:33:21.120Z,81.00
2018-09-26T15:35:49.651Z,87.80
2018-09-26T15:38:18.191Z,91.70
2018-09-26T15:40:46.714Z,92.90
2018-09-26T15:43:15.238Z,94.00
2018-09-26T15:45:43.822Z,95.00
2018-09-26T15:48:12.461Z,94.40
2018-09-26T15:50:40.873Z,95.20
2018-09-26T15:53:09.462Z,95.40
2018-09-26T15:55:38.005Z,95.60
2018-09-26T15:58:06.596Z,95.60
2018-09-26T16:00:35.095Z,96.00
2018-09-26T16:03:04.047Z,95.70
2018-09-26T16:05:32.394Z,96.50
2018-09-26T16:08:00.837Z,97.60
2018-09-26T16:10:29.250Z,97.20
2018-09-26T16:12:57.687Z,98.10
2018-09-26T16:15:26.098Z,99.30
2018-09-26T16:17:54.560Z,99.90
2018-09-26T16:20:23.017Z,99.90
2018-09-26T16:22:51.440Z,99.90
2018-09-26T16:25:19.908Z,99.90
2018-09-26T16:27:48.298Z,99.90
2018-09-26T16:30:16.765Z,99.90
2018-09-26T16:32:45.158Z,99.90
2018-09-26T16:35:13.572Z,99.90
2018-09-26T16:37:42.038Z,99.90
2018-09-26T16:40:10.495Z,99.90
2018-09-26T16:42:38.897Z,99.90
2018-09-26T16:45:08.023Z,99.90
2018-09-26T16:47:36.466Z,99.90
2018-09-26T16:50:05.155Z,99.90
2018-09-26T16:52:33.549Z,99.90
2018-09-26T16:55:01.964Z,99.90
2018-09-26T16:57:30.460Z,99.90
2018-09-26T16:59:58.887Z,99.90
2018-09-26T17:02:27.335Z,99.90
2018-09-26T17:04:55.745Z,99.90
2018-09-26T17:07:24.174Z,99.90
2018-09-26T17:09:52.572Z,99.90
2018-09-26T17:12:21.099Z,99.90
2018-09-26T17:14:49.458Z,99.90
2018-09-26T17:17:17.924Z,99.90
2018-09-26T17:19:46.416Z,99.90
2018-09-26T17:22:14.931Z,99.90
2018-09-26T17:24:43.276Z,99.90
2018-09-26T17:27:11.712Z,99.90
2018-09-26T17:29:40.150Z,99.90
2018-09-26T17:32:08.628Z,99.90
2018-09-26T17:34:37.015Z,99.90
2018-09-26T17:37:05.578Z,99.90
2018-09-26T17:39:34.019Z,99.90
2018-09-26T17:42:02.428Z,99.90
2018-09-26T17:44:30.854Z,99.90
2018-09-26T17:46:59.253Z,99.90
2018-09-26T17:49:27.707Z,99.90
2018-09-26T17:51:56.143Z,99.90
2018-09-26T17:54:24.951Z,99.90
2018-09-26T17:56:53.258Z,99.90
2018-09-26T17:59:21.690Z,99.90
2018-09-26T18:01:50.097Z,99.90
2018-09-26T18:04:18.616Z,99.90
2018-09-26T18:06:46.972Z,99.90
2018-09-26T18:09:16.087Z,99.90
2018-09-26T18:11:44.497Z,99.90
2018-09-26T18:14:12.938Z,99.90
2018-09-26T18:16:41.413Z,99.90
2018-09-26T18:19:10.225Z,99.90
2018-09-26T18:21:38.678Z,99.90
2018-09-26T18:24:07.251Z,99.90
2018-09-26T18:26:35.697Z,99.90
2018-09-26T18:29:04.178Z,99.90
2018-09-26T18:31:32.589Z,99.90
2018-09-26T18:34:01.031Z,99.90
2018-09-26T18:36:29.473Z,99.90
2018-09-26T18:38:58.023Z,99.90
2018-09-26T18:41:26.410Z,99.90
2018-09-26T18:43:54.909Z,99.90
2018-09-26T18:46:23.325Z,99.90
2018-09-26T18:48:51.750Z,99.90
2018-09-26T18:51:20.178Z,99.90
2018-09-26T18:53:48.605Z,99.90
2018-09-26T18:56:17.046Z,99.90
2018-09-26T18:58:45.836Z,99.90
2018-09-26T19:01:14.241Z,99.90
2018-09-26T19:03:42.777Z,99.90
2018-09-26T19:06:11.217Z,99.90
2018-09-26T19:08:40.674Z,99.90
2018-09-26T19:11:09.137Z,99.90
2018-09-26T19:13:37.644Z,99.90
2018-09-26T19:16:06.354Z,99.90
2018-09-26T19:18:35.518Z,99.90
2018-09-26T19:21:04.089Z,99.90
2018-09-26T19:23:32.478Z,99.90
2018-09-26T19:26:00.914Z,99.90
2018-09-26T19:28:29.326Z,99.90
2018-09-26T19:30:57.772Z,99.90
2018-09-26T19:33:26.222Z,99.90
2018-09-26T19:35:54.658Z,99.90
2018-09-26T19:38:23.061Z,99.90
2018-09-26T19:40:51.526Z,99.90
2018-09-26T19:43:19.934Z,99.90
2018-09-26T19:45:48.371Z,99.90
2018-09-26T19:48:16.826Z,99.90
2018-09-26T19:50:45.261Z,99.90
2018-09-26T19:53:13.699Z,99.90
2018-09-26T19:55:42.154Z,99.90
2018-09-26T19:58:10.598Z,99.90
2018-09-26T20:00:39.062Z,99.90
2018-09-26T20:03:07.482Z,99.90
2018-09-26T20:05:35.942Z,99.90
2018-09-26T20:08:04.435Z,99.90
2018-09-26T20:10:32.850Z,99.90
2018-09-26T20:13:01.278Z,99.90
2018-09-26T20:15:29.745Z,99.90
2018-09-26T20:17:58.550Z,99.90
2018-09-26T20:20:27.020Z,99.90
2018-09-26T20:22:55.494Z,99.90
2018-09-26T20:25:23.902Z,99.90
2018-09-26T20:27:52.331Z,99.90
2018-09-26T20:30:20.769Z,99.90
2018-09-26T20:32:49.287Z,99.90
2018-09-26T20:35:17.740Z,99.90
2018-09-26T20:37:46.167Z,99.90
2018-09-26T20:40:14.628Z,99.90
2018-09-26T20:42:43.057Z,99.90
2018-09-26T20:45:11.505Z,99.90
2018-09-26T20:47:39.933Z,99.90
2018-09-26T20:50:08.475Z,99.90
2018-09-26T20:52:36.870Z,99.90
2018-09-26T20:55:05.332Z,99.90
2018-09-26T20:57:33.775Z,99.90
2018-09-26T21:00:02.191Z,99.90
2018-09-26T21:02:30.645Z,99.90
2018-09-26T21:04:59.066Z,99.90
2018-09-26T21:07:27.583Z,99.90
2018-09-26T21:09:56.070Z,99.90
2018-09-26T21:12:24.574Z,99.90
2018-09-26T21:14:53.039Z,99.90
2018-09-26T21:17:21.555Z,99.90
2018-09-26T21:19:49.990Z,99.90
2018-09-26T21:22:18.425Z,99.90
2018-09-26T21:24:46.850Z,99.90
2018-09-26T21:27:15.285Z,99.90
2018-09-26T21:29:43.698Z,99.90
2018-09-26T21:32:12.127Z,99.90
2018-09-26T21:34:40.534Z,99.90
2018-09-26T21:37:09.017Z,99.90
2018-09-26T21:39:37.423Z,99.90
2018-09-26T21:42:05.858Z,99.90
2018-09-26T21:44:34.274Z,99.90
2018-09-26T21:47:02.734Z,99.90
2018-09-26T21:49:31.137Z,99.90
2018-09-26T21:51:59.610Z,99.90
2018-09-26T21:54:28.020Z,99.90
2018-09-26T21:56:56.458Z,99.90
2018-09-26T21:59:24.954Z,99.90
2018-09-26T22:01:53.394Z,99.90
2018-09-26T22:04:21.813Z,99.90
2018-09-26T22:06:50.286Z,99.90
2018-09-26T22:09:18.709Z,99.90
2018-09-26T22:11:47.149Z,99.90
2018-09-26T22:14:15.623Z,99.90
2018-09-26T22:16:44.077Z,99.90
2018-09-26T22:19:12.504Z,99.90
2018-09-26T22:21:40.957Z,99.90
2018-09-26T22:24:09.361Z,99.90
2018-09-26T22:26:37.781Z,99.90
2018-09-26T22:29:07.342Z,99.90
2018-09-26T22:31:35.742Z,99.90
2018-09-26T22:34:04.190Z,99.90
2018-09-26T22:36:32.631Z,99.90
2018-09-26T22:39:01.074Z,99.90
2018-09-26T22:41:29.505Z,99.90
2018-09-26T22:43:57.949Z,99.90
2018-09-26T22:46:26.382Z,99.90
2018-09-26T22:48:54.835Z,99.90
2018-09-26T22:51:23.314Z,99.90
2018-09-26T22:53:51.758Z,99.90
2018-09-26T22:56:20.162Z,99.90
2018-09-26T22:58:48.659Z,99.90
2018-09-26T23:01:17.130Z,99.90
2018-09-26T23:03:45.618Z,99.90
2018-09-26T23:06:14.043Z,99.90
2018-09-26T23:08:42.523Z,99.90
2018-09-26T23:11:10.938Z,99.90
2018-09-26T23:13:39.446Z,99.90
2018-09-26T23:16:07.850Z,99.90
2018-09-26T23:18:36.318Z,99.90
2018-09-26T23:21:04.753Z,99.90
2018-09-26T23:23:33.199Z,99.90
2018-09-26T23:26:01.630Z,99.90
2018-09-26T23:28:30.127Z,99.90
2018-09-26T23:30:58.550Z,99.90
2018-09-26T23:33:27.003Z,99.90
2018-09-26T23:35:55.438Z,99.90
2018-09-26T23:38:23.890Z,99.90
2018-09-26T23:40:52.376Z,99.90
2018-09-26T23:43:20.832Z,99.90
2018-09-26T23:45:49.361Z,99.90
2018-09-26T23:48:17.811Z,99.90
2018-09-26T23:50:46.272Z,99.90
2018-09-26T23:53:14.718Z,99.90
2018-09-26T23:55:43.155Z,99.90
2018-09-26T23:58:11.582Z,99.90
